Time;durP1;ratioP1;P1;durP2;ratioP2;P2;SDS_P1;SDS_P2;PMS_P1;PMS_P2;Temp;Humidity;BMP_temperature;BMP_pressure;BME280_temperature;BME280_humidity;BME280_pressure;Samples;Min_cycle;Max_cycle;Signal;HPM_P1;HPM_P2
2022/10/24 00:00:29;;;;;;;9.00;2.88;;;17.00;89.40;;;;;;4979311;28;20053;-80
2022/10/24 00:02:55;;;;;;;10.10;2.45;;;17.00;90.40;;;;;;4991908;28;20249;-79
2022/10/24 00:05:21;;;;;;;8.18;2.75;;;16.90;90.30;;;;;;4991887;28;20126;-80
2022/10/24 00:07:48;;;;;;;8.45;2.35;;;16.90;90.30;;;;;;4988759;28;20026;-80
2022/10/24 00:10:14;;;;;;;11.10;2.97;;;16.80;90.60;;;;;;4990254;28;20065;-80
2022/10/24 00:12:40;;;;;;;5.25;2.58;;;16.80;90.70;;;;;;4991586;28;20046;-79
2022/10/24 00:15:07;;;;;;;5.97;2.35;;;16.80;90.50;;;;;;4991993;28;20069;-80
2022/10/24 00:17:32;;;;;;;9.38;2.60;;;16.80;90.30;;;;;;4989943;28;20277;-79
2022/10/24 00:19:59;;;;;;;5.10;1.80;;;16.70;90.50;;;;;;4989394;28;20033;-79
2022/10/24 00:22:26;;;;;;;5.10;1.70;;;16.70;89.70;;;;;;4989758;28;20068;-81
2022/10/24 00:24:51;;;;;;;5.57;2.33;;;16.70;90.00;;;;;;4990486;28;20072;-80
2022/10/24 00:27:18;;;;;;;9.48;2.20;;;16.70;90.10;;;;;;4989942;28;20478;-80
2022/10/24 00:29:43;;;;;;;6.28;2.40;;;16.60;90.30;;;;;;4990928;28;20114;-81
2022/10/24 00:32:09;;;;;;;7.72;2.90;;;16.60;90.50;;;;;;4990751;28;20093;-79
2022/10/24 00:34:36;;;;;;;6.32;2.40;;;16.60;90.20;;;;;;4989581;28;20080;-81
2022/10/24 00:37:03;;;;;;;7.15;2.03;;;16.60;89.00;;;;;;4970517;28;20022;-81
2022/10/24 00:39:28;;;;;;;9.73;2.30;;;16.60;90.30;;;;;;4990983;28;20030;-79
2022/10/24 00:41:57;;;;;;;8.65;1.95;;;16.60;90.00;;;;;;4989905;28;20519;-80
2022/10/24 00:44:27;;;;;;;12.38;3.95;;;16.60;89.90;;;;;;4989319;28;20477;-80
2022/10/24 00:47:19;;;;;;;9.57;2.87;;;16.60;90.30;;;;;;4989395;28;20105;-80
2022/10/24 00:50:10;;;;;;;7.80;2.40;;;16.60;90.20;;;;;;4990001;28;20076;-80
2022/10/24 00:52:41;;;;;;;5.82;2.17;;;16.60;89.20;;;;;;4989285;28;20038;-80
2022/10/24 00:55:07;;;;;;;5.95;1.80;;;16.60;89.20;;;;;;4990207;28;20026;-81
2022/10/24 00:57:39;;;;;;;7.65;1.95;;;16.60;88.50;;;;;;4989608;28;20026;-80
2022/10/24 01:00:18;;;;;;;7.32;2.35;;;16.60;88.20;;;;;;4989475;28;20019;-80
2022/10/24 01:02:44;;;;;;;11.13;2.92;;;16.60;89.30;;;;;;4984624;28;20050;-80
2022/10/24 01:05:11;;;;;;;7.10;2.20;;;16.50;90.50;;;;;;4989990;28;20138;-79
2022/10/24 01:07:50;;;;;;;7.65;1.85;;;16.60;90.60;;;;;;4989218;28;20026;-81
2022/10/24 01:10:53;;;;;;;4.40;1.63;;;16.60;90.20;;;;;;4982492;28;20030;-77
2022/10/24 01:13:21;;;;;;;9.73;2.95;;;16.60;88.60;;;;;;4988871;28;20026;-77
2022/10/24 01:16:11;;;;;;;8.48;2.72;;;16.60;88.60;;;;;;4987520;28;20046;-79
2022/10/24 01:19:04;;;;;;;6.88;1.85;;;16.70;89.20;;;;;;4987016;28;20022;-78
2022/10/24 01:21:42;;;;;;;6.25;2.00;;;16.70;89.00;;;;;;4985778;28;20038;-79
2022/10/24 01:24:36;;;;;;;10.68;1.98;;;16.70;88.00;;;;;;4988960;28;20022;-78
2022/10/24 01:27:32;;;;;;;7.30;2.25;;;16.80;87.30;;;;;;4981965;28;20034;-77
2022/10/24 01:30:08;;;;;;;5.40;1.70;;;16.80;87.70;;;;;;4987918;28;20034;-79
2022/10/24 01:32:40;;;;;;;8.90;2.15;;;16.90;87.10;;;;;;4992877;28;20036;-78
2022/10/24 01:35:16;;;;;;;8.23;2.13;;;17.00;86.40;;;;;;4990904;28;20034;-78
2022/10/24 01:37:51;;;;;;;10.68;1.98;;;17.00;86.40;;;;;;4980545;28;20023;-78
2022/10/24 01:40:50;;;;;;;8.55;1.90;;;17.00;85.50;;;;;;4992239;28;20019;-79
2022/10/24 01:43:21;;;;;;;6.70;2.80;;;17.10;84.50;;;;;;4979315;28;20046;-78
2022/10/24 01:45:52;;;;;;;5.50;1.90;;;17.10;85.30;;;;;;4989113;28;20022;-81
2022/10/24 01:48:20;;;;;;;7.03;1.98;;;17.10;85.20;;;;;;4991259;28;20026;-79
2022/10/24 01:50:48;;;;;;;7.55;2.50;;;17.10;85.90;;;;;;4978650;28;20127;-78
2022/10/24 01:53:14;;;;;;;7.95;2.17;;;17.10;86.20;;;;;;4992819;28;20033;-78
2022/10/24 01:55:42;;;;;;;7.18;2.13;;;17.00;85.10;;;;;;4992738;28;20026;-77
2022/10/24 01:58:07;;;;;;;12.45;2.67;;;17.10;85.00;;;;;;4991546;28;20049;-79
2022/10/24 02:00:34;;;;;;;7.38;2.42;;;17.10;85.90;;;;;;4992858;28;20026;-80
2022/10/24 02:03:05;;;;;;;9.10;2.13;;;17.10;85.30;;;;;;4987592;28;20034;-77
2022/10/24 02:05:36;;;;;;;9.60;2.70;;;17.10;85.20;;;;;;4989355;28;20042;-81
2022/10/24 02:08:08;;;;;;;6.60;2.22;;;17.10;84.50;;;;;;4991900;28;20033;-80
2022/10/24 02:10:38;;;;;;;5.70;2.15;;;17.10;84.60;;;;;;4992144;28;20054;-80
2022/10/24 02:13:18;;;;;;;7.13;2.25;;;17.10;84.70;;;;;;4992976;28;20070;-78
2022/10/24 02:15:47;;;;;;;12.30;3.28;;;17.20;84.40;;;;;;4987044;28;20062;-80
2022/10/24 02:18:14;;;;;;;7.55;2.05;;;17.10;85.20;;;;;;4992167;28;20019;-79
2022/10/24 02:21:04;;;;;;;6.57;2.22;;;17.10;84.70;;;;;;4989536;28;20136;-79
2022/10/24 02:23:43;;;;;;;7.45;2.15;;;17.10;84.50;;;;;;4992134;28;20081;-80
2022/10/24 02:26:15;;;;;;;4.37;1.43;;;17.10;84.20;;;;;;4993118;28;20027;-79
2022/10/24 02:28:44;;;;;;;7.00;2.42;;;17.10;84.00;;;;;;4993322;28;20060;-80
2022/10/24 02:31:20;;;;;;;8.25;3.13;;;17.20;83.90;;;;;;4992645;28;20030;-78
2022/10/24 02:33:49;;;;;;;7.47;2.00;;;17.10;84.00;;;;;;4987056;28;20181;-81
2022/10/24 02:36:18;;;;;;;7.43;2.40;;;17.20;83.50;;;;;;4991578;28;20026;-79
2022/10/24 02:38:47;;;;;;;7.47;1.83;;;17.10;83.50;;;;;;4992282;28;20030;-80
2022/10/24 02:41:19;;;;;;;7.15;1.65;;;17.10;83.40;;;;;;4986465;28;20038;-84
2022/10/24 02:43:45;;;;;;;9.15;2.38;;;17.10;83.10;;;;;;4991161;28;20065;-81
2022/10/24 02:46:13;;;;;;;7.30;2.05;;;17.20;83.00;;;;;;4990059;28;20522;-80
2022/10/24 02:48:44;;;;;;;8.73;2.15;;;17.20;82.80;;;;;;4990649;28;20484;-79
2022/10/24 02:51:11;;;;;;;10.57;2.38;;;17.20;82.70;;;;;;4992281;28;20026;-78
2022/10/24 02:53:38;;;;;;;7.13;2.10;;;17.20;82.70;;;;;;4983441;28;20090;-79
2022/10/24 02:56:04;;;;;;;10.73;2.28;;;17.20;82.60;;;;;;4991557;28;20018;-78
2022/10/24 02:58:29;;;;;;;5.22;1.60;;;17.20;82.50;;;;;;4991245;28;20086;-81
2022/10/24 03:00:55;;;;;;;6.60;1.92;;;17.20;82.60;;;;;;4991561;28;20609;-80
2022/10/24 03:03:21;;;;;;;5.85;2.15;;;17.20;82.40;;;;;;4985280;28;20027;-79
2022/10/24 03:05:47;;;;;;;9.52;2.40;;;17.20;82.50;;;;;;4987032;28;20030;-79
2022/10/24 03:08:13;;;;;;;7.68;2.22;;;17.20;82.30;;;;;;4997115;28;20025;-80
2022/10/24 03:10:39;;;;;;;7.50;2.45;;;17.20;82.30;;;;;;4990299;28;20060;-80
2022/10/24 03:13:05;;;;;;;7.32;2.03;;;17.20;82.10;;;;;;4991147;28;20026;-78
2022/10/24 03:15:31;;;;;;;8.13;1.80;;;17.20;82.10;;;;;;4985054;28;20065;-79
2022/10/24 03:17:57;;;;;;;4.72;1.70;;;17.10;81.90;;;;;;4993817;28;20362;-82
2022/10/24 03:20:23;;;;;;;5.20;2.05;;;17.20;82.20;;;;;;4990544;28;20033;-78
2022/10/24 03:22:49;;;;;;;8.18;2.30;;;17.20;82.10;;;;;;4990637;28;20387;-79
2022/10/24 03:25:15;;;;;;;6.25;1.88;;;17.20;81.80;;;;;;4989610;28;20022;-81
2022/10/24 03:27:41;;;;;;;8.25;2.17;;;17.10;81.70;;;;;;4991162;28;20829;-77
2022/10/24 03:30:08;;;;;;;4.32;1.63;;;17.10;81.40;;;;;;4990199;28;20049;-81
2022/10/24 03:32:33;;;;;;;7.35;1.70;;;17.20;81.80;;;;;;4985131;28;20105;-80
2022/10/24 03:34:59;;;;;;;6.70;2.17;;;17.20;81.50;;;;;;4982586;28;20018;-80
2022/10/24 03:37:25;;;;;;;6.97;1.48;;;17.10;81.40;;;;;;4989412;28;20026;-81
2022/10/24 03:39:51;;;;;;;7.60;2.10;;;17.10;81.10;;;;;;4991692;28;20408;-79
2022/10/24 03:42:17;;;;;;;5.68;1.70;;;17.10;81.20;;;;;;4989575;28;20030;-81
2022/10/24 03:44:42;;;;;;;6.40;1.60;;;17.10;80.70;;;;;;4990576;28;20034;-79
2022/10/24 03:47:09;;;;;;;6.35;1.63;;;17.10;81.10;;;;;;4983947;28;20023;-80
2022/10/24 03:49:35;;;;;;;6.60;1.70;;;17.10;80.60;;;;;;4989998;28;20037;-79
2022/10/24 03:52:01;;;;;;;5.90;1.30;;;17.00;80.10;;;;;;4991351;28;20034;-82
2022/10/24 03:54:27;;;;;;;9.13;2.10;;;17.10;80.30;;;;;;4989495;28;20029;-81
2022/10/24 03:56:53;;;;;;;6.75;1.70;;;17.10;79.90;;;;;;4989730;28;20494;-81
2022/10/24 03:59:18;;;;;;;4.75;1.33;;;17.10;80.10;;;;;;4989940;28;20468;-81
2022/10/24 04:01:44;;;;;;;7.65;1.95;;;17.10;80.20;;;;;;4989873;28;20053;-80
2022/10/24 04:04:10;;;;;;;6.85;1.25;;;17.00;79.90;;;;;;4988668;28;20030;-82
2022/10/24 04:06:35;;;;;;;6.97;1.48;;;17.00;81.00;;;;;;4989655;28;20035;-83
2022/10/24 04:09:01;;;;;;;8.07;1.42;;;17.00;80.80;;;;;;4989817;28;20026;-84
2022/10/24 04:11:27;;;;;;;5.70;1.48;;;17.10;80.40;;;;;;4990517;28;20115;-82
2022/10/24 04:13:53;;;;;;;7.00;1.58;;;17.10;80.50;;;;;;4990331;28;20087;-82
2022/10/24 04:16:19;;;;;;;7.82;1.90;;;17.10;80.10;;;;;;4991086;28;20022;-81
2022/10/24 04:18:45;;;;;;;8.45;1.63;;;17.00;80.00;;;;;;4993077;28;20030;-82
2022/10/24 04:21:13;;;;;;;8.32;1.38;;;17.10;80.20;;;;;;4982084;28;20050;-84
2022/10/24 04:23:41;;;;;;;7.25;2.05;;;17.00;80.40;;;;;;4981512;28;20034;-85
2022/10/24 04:26:08;;;;;;;6.55;1.23;;;17.00;80.30;;;;;;4989763;28;20026;-81
2022/10/24 04:28:34;;;;;;;5.05;1.30;;;17.10;80.60;;;;;;4990385;28;20080;-83
2022/10/24 04:30:59;;;;;;;3.80;1.10;;;17.10;80.70;;;;;;4990680;28;20022;-83
2022/10/24 04:33:25;;;;;;;5.15;1.52;;;17.10;80.70;;;;;;4988224;28;20085;-84
2022/10/24 04:35:54;;;;;;;4.70;1.02;;;17.00;80.60;;;;;;4990397;28;20077;-82
2022/10/24 04:38:20;;;;;;;6.57;1.40;;;17.00;80.50;;;;;;4990394;28;20030;-83
2022/10/24 04:40:51;;;;;;;9.40;1.63;;;17.00;80.70;;;;;;4990632;28;20038;-82
2022/10/24 04:43:19;;;;;;;5.57;1.48;;;16.90;80.90;;;;;;4989927;28;20088;-82
2022/10/24 04:45:45;;;;;;;6.20;1.40;;;16.90;81.10;;;;;;4990981;28;20026;-81
2022/10/24 04:48:11;;;;;;;5.90;1.50;;;16.90;81.30;;;;;;4983849;28;20117;-82
2022/10/24 04:50:39;;;;;;;4.22;1.10;;;16.90;81.50;;;;;;4990173;28;20129;-81
2022/10/24 04:53:05;;;;;;;5.93;1.38;;;16.90;81.70;;;;;;4990209;28;20026;-83
2022/10/24 04:55:31;;;;;;;4.75;1.50;;;16.80;82.30;;;;;;4988602;28;20029;-83
2022/10/24 04:57:57;;;;;;;4.47;1.65;;;16.80;82.00;;;;;;4990464;28;20160;-81
2022/10/24 05:00:23;;;;;;;5.10;1.38;;;16.80;81.80;;;;;;4988339;28;20104;-84
2022/10/24 05:02:49;;;;;;;5.30;1.50;;;16.70;82.00;;;;;;4991152;28;20035;-86
2022/10/24 05:05:16;;;;;;;9.82;1.90;;;16.70;82.00;;;;;;4990677;28;20023;-82
2022/10/24 05:07:45;;;;;;;8.07;1.95;;;16.70;82.00;;;;;;4989686;28;20026;-82
2022/10/24 05:10:12;;;;;;;7.97;1.75;;;16.80;82.10;;;;;;4989385;28;20026;-87
2022/10/24 05:12:38;;;;;;;6.30;1.60;;;16.80;81.90;;;;;;4977833;28;20030;-82
2022/10/24 05:15:05;;;;;;;9.27;1.48;;;16.70;81.90;;;;;;4988359;28;20407;-85
2022/10/24 05:17:31;;;;;;;7.95;2.10;;;16.70;82.00;;;;;;4991876;28;20029;-83
2022/10/24 05:19:57;;;;;;;6.70;1.63;;;16.80;82.00;;;;;;4991502;28;20027;-82
2022/10/24 05:22:22;;;;;;;5.93;1.63;;;16.80;81.80;;;;;;4989305;28;20376;-83
2022/10/24 05:24:49;;;;;;;7.10;1.35;;;16.80;81.70;;;;;;4984551;28;20421;-81
2022/10/24 05:27:23;;;;;;;7.38;1.75;;;16.80;81.70;;;;;;4982513;28;20033;-84
2022/10/24 05:29:52;;;;;;;5.32;1.33;;;16.80;81.70;;;;;;4987082;28;20410;-81
2022/10/24 05:32:19;;;;;;;6.82;1.45;;;16.80;81.70;;;;;;4987936;28;20567;-86
2022/10/24 05:34:44;;;;;;;4.18;1.15;;;16.90;81.80;;;;;;4990662;28;20038;-85
2022/10/24 05:37:10;;;;;;;4.45;1.70;;;16.80;81.60;;;;;;4991085;28;20023;-81
2022/10/24 05:39:36;;;;;;;6.15;1.63;;;16.80;82.20;;;;;;4988099;28;21128;-84
2022/10/24 05:42:02;;;;;;;5.82;1.60;;;16.90;81.90;;;;;;4990009;28;20464;-82
2022/10/24 05:44:28;;;;;;;5.57;1.45;;;16.90;81.40;;;;;;4989732;28;20412;-83
2022/10/24 05:46:53;;;;;;;6.07;1.67;;;16.90;81.50;;;;;;4991614;28;20480;-84
2022/10/24 05:49:19;;;;;;;6.88;1.48;;;16.80;81.20;;;;;;4990950;28;20047;-84
2022/10/24 05:51:45;;;;;;;5.40;1.30;;;16.80;81.60;;;;;;4989593;28;20037;-84
2022/10/24 05:54:13;;;;;;;6.63;1.55;;;16.80;81.50;;;;;;4989915;28;20053;-83
2022/10/24 05:56:39;;;;;;;8.73;2.05;;;16.80;82.30;;;;;;4989061;28;20019;-85
2022/10/24 05:59:05;;;;;;;7.38;1.92;;;16.90;81.50;;;;;;4978885;28;20034;-83
2022/10/24 06:01:31;;;;;;;6.22;1.17;;;16.80;81.30;;;;;;4983081;28;20078;-84
2022/10/24 06:03:57;;;;;;;6.10;1.52;;;16.90;81.40;;;;;;4982890;28;20381;-82
2022/10/24 06:06:24;;;;;;;4.30;1.40;;;16.90;81.60;;;;;;4990398;28;20033;-84
2022/10/24 06:08:50;;;;;;;6.13;1.35;;;16.90;81.40;;;;;;4990377;28;20022;-76
2022/10/24 06:11:17;;;;;;;6.15;1.70;;;16.90;81.60;;;;;;4987669;28;20057;-75
2022/10/24 06:13:44;;;;;;;5.00;1.33;;;16.90;81.80;;;;;;4985188;28;20027;-74
2022/10/24 06:16:10;;;;;;;4.65;1.20;;;17.10;81.70;;;;;;4986894;28;20309;-76
2022/10/24 06:18:41;;;;;;;6.15;1.17;;;17.20;81.20;;;;;;4989507;28;20591;-76
2022/10/24 06:21:08;;;;;;;6.13;1.40;;;17.20;81.10;;;;;;4989558;28;20058;-74
2022/10/24 06:23:34;;;;;;;11.27;1.60;;;17.20;80.90;;;;;;4989492;28;20472;-75
2022/10/24 06:26:00;;;;;;;7.18;1.52;;;17.20;80.90;;;;;;4986598;28;20037;-73
2022/10/24 06:28:25;;;;;;;8.55;1.80;;;17.20;80.90;;;;;;4985328;28;20026;-74
2022/10/24 06:30:55;;;;;;;6.53;1.15;;;17.20;81.00;;;;;;4989456;28;20565;-75
2022/10/24 06:33:20;;;;;;;6.32;1.70;;;17.20;80.90;;;;;;4990038;28;20089;-75
2022/10/24 06:35:46;;;;;;;4.95;1.40;;;17.20;81.00;;;;;;4989378;28;20034;-75
2022/10/24 06:38:13;;;;;;;5.68;1.60;;;17.20;81.00;;;;;;4990485;28;20019;-74
2022/10/24 06:40:41;;;;;;;6.38;1.83;;;17.20;81.60;;;;;;4990619;28;20088;-75
2022/10/24 06:43:07;;;;;;;9.27;1.85;;;17.20;81.00;;;;;;4989935;28;20085;-74
2022/10/24 06:45:32;;;;;;;8.25;1.77;;;17.20;80.80;;;;;;4988291;28;20022;-74
2022/10/24 06:47:58;;;;;;;8.00;2.13;;;17.20;80.80;;;;;;4986238;28;20034;-73
2022/10/24 06:50:24;;;;;;;4.88;1.35;;;17.20;80.70;;;;;;4987914;28;20026;-74
2022/10/24 06:52:49;;;;;;;9.55;2.03;;;17.30;80.50;;;;;;4985609;28;20022;-75
2022/10/24 06:55:15;;;;;;;6.85;1.30;;;17.40;80.30;;;;;;4990149;28;20018;-75
2022/10/24 06:57:41;;;;;;;6.88;1.60;;;17.40;80.10;;;;;;4990636;28;20069;-75
2022/10/24 07:00:07;;;;;;;10.65;2.00;;;17.50;79.90;;;;;;4989032;28;20038;-75
2022/10/24 07:02:34;;;;;;;7.45;1.67;;;17.50;79.40;;;;;;4989948;28;20049;-75
2022/10/24 07:04:59;;;;;;;15.23;2.05;;;17.60;79.50;;;;;;4989948;28;20022;-74
2022/10/24 07:07:25;;;;;;;5.68;1.17;;;17.70;79.30;;;;;;4989768;28;20019;-76
2022/10/24 07:09:53;;;;;;;6.80;1.67;;;17.90;79.00;;;;;;4988865;28;20030;-75
2022/10/24 07:12:20;;;;;;;11.70;2.22;;;18.10;78.00;;;;;;4988382;28;20456;-76
2022/10/24 07:14:47;;;;;;;8.75;1.58;;;18.20;77.60;;;;;;4990451;28;20063;-74
2022/10/24 07:17:15;;;;;;;4.88;1.10;;;18.20;77.40;;;;;;4984979;28;20026;-75
2022/10/24 07:19:40;;;;;;;7.68;1.58;;;18.20;77.80;;;;;;4983423;28;20054;-76
2022/10/24 07:22:06;;;;;;;10.63;1.58;;;18.30;77.30;;;;;;4988375;28;20058;-76
2022/10/24 07:24:32;;;;;;;7.18;1.98;;;18.30;77.10;;;;;;4989438;28;20022;-76
2022/10/24 07:26:58;;;;;;;6.80;1.85;;;18.40;77.20;;;;;;4985808;28;20022;-74
2022/10/24 07:29:23;;;;;;;9.38;1.60;;;18.50;77.20;;;;;;4979248;28;20030;-74
2022/10/24 07:31:49;;;;;;;6.13;1.48;;;18.50;76.80;;;;;;4989133;28;20061;-75
2022/10/24 07:34:15;;;;;;;7.75;1.70;;;18.60;76.50;;;;;;4988578;28;20113;-74
2022/10/24 07:36:41;;;;;;;10.93;2.47;;;18.70;76.00;;;;;;4985022;28;20536;-73
2022/10/24 07:39:07;;;;;;;10.07;1.88;;;18.80;75.80;;;;;;4989462;28;20022;-75
2022/10/24 07:41:35;;;;;;;8.15;1.45;;;18.80;76.00;;;;;;4988288;28;20404;-75
2022/10/24 07:44:01;;;;;;;6.47;1.58;;;18.90;75.80;;;;;;4987453;28;20042;-76
2022/10/24 07:46:27;;;;;;;9.43;1.70;;;19.00;75.90;;;;;;4988062;28;20026;-74
2022/10/24 07:48:54;;;;;;;6.13;1.65;;;19.10;75.50;;;;;;4986621;28;20046;-74
2022/10/24 07:51:20;;;;;;;7.25;1.35;;;19.20;75.40;;;;;;4987101;28;20037;-75
2022/10/24 07:53:46;;;;;;;7.85;1.38;;;19.20;75.30;;;;;;4987800;28;20104;-74
2022/10/24 07:56:15;;;;;;;7.80;1.30;;;19.30;75.20;;;;;;4987530;28;20093;-75
2022/10/24 07:58:43;;;;;;;6.15;1.80;;;19.40;75.10;;;;;;4988698;28;20065;-74
2022/10/24 08:01:20;;;;;;;7.88;1.60;;;19.50;75.20;;;;;;4986926;28;20042;-74
2022/10/24 08:03:46;;;;;;;8.70;1.98;;;19.50;74.70;;;;;;4977779;28;20049;-75
2022/10/24 08:06:14;;;;;;;8.48;2.28;;;19.50;74.30;;;;;;4986510;28;20125;-77
2022/10/24 08:08:40;;;;;;;7.15;1.73;;;19.40;75.00;;;;;;4989415;28;20030;-74
2022/10/24 08:11:08;;;;;;;5.80;1.25;;;19.20;75.40;;;;;;4984230;28;20610;-73
2022/10/24 08:13:33;;;;;;;9.38;2.10;;;19.20;76.20;;;;;;4981238;28;20053;-74
2022/10/24 08:16:04;;;;;;;5.80;1.30;;;19.20;75.60;;;;;;4986739;28;20090;-76
2022/10/24 08:18:30;;;;;;;8.15;2.00;;;19.20;75.90;;;;;;4987018;28;20080;-76
2022/10/24 08:20:58;;;;;;;5.13;1.00;;;19.30;75.90;;;;;;4985361;28;20038;-76
2022/10/24 08:23:23;;;;;;;6.85;1.38;;;19.50;75.50;;;;;;4984917;28;20029;-75
2022/10/24 08:25:49;;;;;;;5.82;1.35;;;19.60;75.40;;;;;;4987470;28;20112;-76
2022/10/24 08:28:14;;;;;;;9.02;1.35;;;19.60;75.20;;;;;;4984736;28;20035;-75
2022/10/24 08:30:41;;;;;;;9.25;2.10;;;19.60;75.30;;;;;;4988131;28;20061;-76
2022/10/24 08:33:06;;;;;;;6.40;1.45;;;19.60;75.10;;;;;;4985028;28;20081;-75
2022/10/24 08:35:32;;;;;;;7.90;2.08;;;19.60;74.10;;;;;;4987752;28;20310;-77
2022/10/24 08:38:00;;;;;;;5.72;1.30;;;19.70;74.70;;;;;;4986531;28;20488;-77
2022/10/24 08:40:27;;;;;;;7.20;1.38;;;19.70;74.30;;;;;;4988364;28;20485;-76
2022/10/24 08:42:53;;;;;;;7.90;1.25;;;19.80;73.80;;;;;;4987780;28;20439;-76
2022/10/24 08:45:32;;;;;;;6.65;1.38;;;19.90;74.10;;;;;;4988134;28;20140;-75
2022/10/24 08:48:12;;;;;;;13.52;2.28;;;20.00;74.90;;;;;;4988636;28;20102;-76
2022/10/24 08:50:43;;;;;;;4.95;1.10;;;20.00;74.70;;;;;;4988204;28;20377;-76
2022/10/24 08:53:14;;;;;;;7.78;1.73;;;20.10;75.00;;;;;;4988855;28;20023;-76
2022/10/24 08:55:48;;;;;;;9.50;1.80;;;20.10;74.60;;;;;;4988372;28;20030;-76
2022/10/24 08:58:24;;;;;;;5.40;1.10;;;20.20;75.40;;;;;;4988165;28;20023;-74
2022/10/24 09:00:53;;;;;;;6.45;1.27;;;20.30;74.40;;;;;;4979839;28;20036;-76
2022/10/24 09:03:33;;;;;;;9.63;2.40;;;20.40;73.70;;;;;;4989449;28;20019;-81
2022/10/24 09:06:04;;;;;;;9.32;1.90;;;20.30;71.30;;;;;;4991597;28;20022;-82
2022/10/24 09:08:52;;;;;;;7.03;1.15;;;20.20;70.90;;;;;;4979237;28;20101;-77
2022/10/24 09:11:27;;;;;;;9.98;1.80;;;20.20;73.30;;;;;;4988388;28;20046;-79
2022/10/24 09:13:53;;;;;;;13.93;1.55;;;20.10;71.00;;;;;;4986981;28;20026;-78
2022/10/24 09:16:22;;;;;;;4.15;1.00;;;20.00;72.60;;;;;;4995144;28;20037;-80
2022/10/24 09:18:52;;;;;;;7.95;1.70;;;20.10;74.10;;;;;;4994753;28;20137;-80
2022/10/24 09:21:19;;;;;;;6.65;1.73;;;20.10;70.60;;;;;;4992128;28;20041;-77
2022/10/24 09:23:52;;;;;;;8.13;1.52;;;20.10;72.10;;;;;;4991052;28;20088;-81
2022/10/24 09:26:26;;;;;;;7.53;1.73;;;20.20;71.90;;;;;;4992214;28;20019;-80
2022/10/24 09:28:53;;;;;;;8.38;1.70;;;20.20;70.80;;;;;;4995206;28;20022;-78
2022/10/24 09:31:21;;;;;;;7.88;1.60;;;20.20;71.00;;;;;;4994044;28;20058;-78
2022/10/24 09:33:50;;;;;;;7.55;1.40;;;20.40;73.80;;;;;;4994972;28;20023;-79
2022/10/24 09:36:18;;;;;;;9.25;1.55;;;20.40;70.00;;;;;;4989792;28;20037;-78
2022/10/24 09:38:45;;;;;;;6.32;1.25;;;20.40;72.20;;;;;;4992161;28;20500;-79
2022/10/24 09:41:25;;;;;;;7.63;1.23;;;20.50;69.60;;;;;;4995992;28;20026;-79
2022/10/24 09:43:56;;;;;;;7.45;1.45;;;20.50;69.60;;;;;;4997307;28;20031;-80
2022/10/24 09:46:44;;;;;;;4.75;1.15;;;20.50;68.90;;;;;;4996410;28;20025;-78
2022/10/24 09:49:22;;;;;;;8.88;1.30;;;20.60;69.60;;;;;;4987603;28;20045;-80
2022/10/24 09:52:14;;;;;;;8.15;1.50;;;20.70;69.30;;;;;;4993482;28;20484;-78
2022/10/24 09:54:40;;;;;;;5.28;1.50;;;20.80;70.40;;;;;;4995830;28;20030;-78
2022/10/24 09:57:15;;;;;;;5.85;1.63;;;20.90;71.00;;;;;;4996013;28;20029;-79
2022/10/24 09:59:43;;;;;;;5.03;1.45;;;20.80;69.80;;;;;;4998544;28;20102;-80
2022/10/24 10:02:18;;;;;;;7.45;1.70;;;20.50;67.70;;;;;;4989504;28;20114;-78
2022/10/24 10:05:03;;;;;;;7.72;1.40;;;20.20;70.30;;;;;;5001996;28;20511;-79
2022/10/24 10:07:32;;;;;;;8.15;1.20;;;20.00;72.20;;;;;;4996778;28;20452;-78
2022/10/24 10:10:01;;;;;;;4.22;0.88;;;19.90;74.60;;;;;;4997876;28;20062;-79
2022/10/24 10:13:01;;;;;;;6.22;1.33;;;19.80;75.30;;;;;;4999715;28;20049;-78
2022/10/24 10:15:35;;;;;;;6.18;1.65;;;19.60;72.40;;;;;;4997186;28;20042;-80
2022/10/24 10:18:21;;;;;;;9.45;1.27;;;19.70;74.80;;;;;;5003566;28;20087;-79
2022/10/24 10:21:00;;;;;;;8.90;1.55;;;19.60;72.50;;;;;;5001928;28;20507;-78
2022/10/24 10:23:33;;;;;;;6.18;1.02;;;19.60;73.30;;;;;;4987908;28;20042;-80
2022/10/24 10:26:28;;;;;;;5.80;1.00;;;19.50;73.60;;;;;;4985561;28;20019;-77
2022/10/24 10:29:15;;;;;;;10.30;1.70;;;19.50;73.20;;;;;;4995192;28;20038;-79
2022/10/24 10:31:46;;;;;;;13.32;1.88;;;19.40;72.70;;;;;;4994455;28;20027;-81
2022/10/24 10:34:37;;;;;;;8.25;1.30;;;19.30;71.90;;;;;;4998108;28;20034;-79
2022/10/24 10:37:22;;;;;;;9.98;1.38;;;19.30;71.90;;;;;;4993258;28;20416;-81
2022/10/24 10:39:53;;;;;;;6.80;1.38;;;19.20;73.00;;;;;;4996975;28;20030;-80
2022/10/24 10:42:40;;;;;;;6.60;1.67;;;19.20;72.80;;;;;;4997160;28;20030;-77
2022/10/24 10:45:42;;;;;;;5.18;1.15;;;19.20;73.80;;;;;;4998532;28;20060;-79
2022/10/24 10:48:28;;;;;;;6.45;1.27;;;19.30;74.40;;;;;;4997563;28;20451;-79
2022/10/24 10:51:14;;;;;;;6.13;1.38;;;19.20;73.50;;;;;;4998223;28;20026;-79
2022/10/24 10:53:43;;;;;;;10.40;1.77;;;19.30;72.50;;;;;;4995022;28;20404;-80
2022/10/24 10:56:33;;;;;;;11.33;1.87;;;19.30;72.40;;;;;;4998367;28;20046;-78
2022/10/24 10:59:25;;;;;;;7.50;1.80;;;19.20;72.00;;;;;;4998897;28;20345;-80
2022/10/24 11:02:18;;;;;;;10.80;1.40;;;19.30;72.30;;;;;;4999226;28;20066;-79
2022/10/24 11:05:13;;;;;;;5.15;0.80;;;19.30;71.00;;;;;;4994566;28;20062;-78
2022/10/24 11:07:47;;;;;;;7.15;1.05;;;19.30;72.90;;;;;;4994390;28;20485;-78
2022/10/24 11:10:19;;;;;;;6.15;1.42;;;19.40;71.70;;;;;;4995951;28;20033;-79
2022/10/24 11:12:46;;;;;;;6.18;1.52;;;19.60;72.50;;;;;;4993770;28;20090;-79
2022/10/24 11:15:20;;;;;;;5.57;1.20;;;19.70;70.30;;;;;;4995218;28;20132;-80
2022/10/24 11:18:01;;;;;;;6.32;1.35;;;19.90;70.40;;;;;;4995751;28;20077;-77
2022/10/24 11:20:52;;;;;;;7.93;1.10;;;20.10;71.90;;;;;;4993605;28;20176;-78
2022/10/24 11:23:42;;;;;;;9.00;1.15;;;20.20;69.20;;;;;;4991899;28;20166;-79
2022/10/24 11:26:26;;;;;;;8.85;1.23;;;20.40;68.60;;;;;;4993698;28;20033;-79
2022/10/24 11:28:57;;;;;;;6.60;1.15;;;20.40;67.70;;;;;;4991520;28;20018;-80
2022/10/24 11:31:54;;;;;;;7.72;0.80;;;20.20;68.20;;;;;;4993259;28;20035;-77
2022/10/24 11:34:34;;;;;;;5.47;1.25;;;20.10;68.40;;;;;;4989201;28;20061;-77
2022/10/24 11:37:08;;;;;;;9.27;1.58;;;19.90;68.80;;;;;;4994919;28;20036;-78
2022/10/24 11:39:47;;;;;;;5.18;1.05;;;19.70;68.80;;;;;;4992832;28;20033;-79
2022/10/24 11:42:12;;;;;;;7.05;1.13;;;19.80;69.80;;;;;;4986009;28;20034;-79
2022/10/24 11:45:16;;;;;;;9.88;1.48;;;19.80;71.00;;;;;;4986577;28;20057;-78
2022/10/24 11:47:50;;;;;;;4.75;1.08;;;19.80;71.30;;;;;;4979021;28;20070;-80
2022/10/24 11:50:57;;;;;;;5.10;1.23;;;19.80;71.10;;;;;;4991653;28;20411;-79
2022/10/24 11:53:45;;;;;;;5.57;1.50;;;19.70;72.20;;;;;;4966712;28;20053;-78
2022/10/24 11:56:16;;;;;;;5.22;1.50;;;19.70;70.80;;;;;;4990468;28;20030;-75
2022/10/24 11:59:02;;;;;;;4.03;0.88;;;19.50;69.50;;;;;;4992792;28;20491;-79
2022/10/24 12:01:39;;;;;;;4.10;1.00;;;19.20;71.20;;;;;;4992563;28;20042;-81
2022/10/24 12:04:31;;;;;;;6.90;1.48;;;19.20;73.80;;;;;;4994650;28;20062;-79
2022/10/24 12:07:18;;;;;;;7.30;1.13;;;19.10;72.80;;;;;;4996515;28;20034;-78
2022/10/24 12:10:10;;;;;;;8.07;2.15;;;19.20;73.80;;;;;;4980479;28;20030;-80
2022/10/24 12:13:08;;;;;;;7.82;1.52;;;19.20;72.80;;;;;;4991991;28;20481;-79
2022/10/24 12:16:04;;;;;;;5.40;0.88;;;19.40;72.70;;;;;;4989869;28;20046;-78
2022/10/24 12:18:40;;;;;;;5.00;1.20;;;19.60;72.70;;;;;;4981620;28;20036;-78
2022/10/24 12:21:13;;;;;;;9.95;1.30;;;19.70;72.90;;;;;;4989401;28;20050;-80
2022/10/24 12:23:40;;;;;;;5.78;0.98;;;19.70;71.00;;;;;;4983967;28;20475;-79
2022/10/24 12:26:17;;;;;;;7.93;1.13;;;19.60;73.30;;;;;;4985249;28;20456;-78
2022/10/24 12:28:56;;;;;;;6.18;1.48;;;19.60;71.50;;;;;;4990164;28;20036;-79
2022/10/24 12:31:30;;;;;;;9.30;1.15;;;19.60;73.90;;;;;;4989133;28;20026;-79
2022/10/24 12:34:14;;;;;;;7.53;1.70;;;19.60;75.00;;;;;;4980868;28;20091;-76
2022/10/24 12:37:10;;;;;;;7.75;1.63;;;19.60;71.20;;;;;;4988304;28;20038;-78
2022/10/24 12:39:45;;;;;;;16.60;1.50;;;19.70;73.30;;;;;;4990259;28;20068;-79
2022/10/24 12:42:35;;;;;;;9.30;1.92;;;19.70;73.00;;;;;;4989829;28;20049;-79
2022/10/24 12:45:20;;;;;;;6.30;1.52;;;19.70;73.30;;;;;;4967128;28;20487;-79
2022/10/24 12:48:12;;;;;;;13.50;1.85;;;19.50;72.60;;;;;;4995097;28;20026;-77
2022/10/24 12:50:38;;;;;;;8.88;1.50;;;19.40;73.70;;;;;;4979416;28;20044;-79
2022/10/24 12:53:19;;;;;;;8.57;1.60;;;19.40;72.10;;;;;;4993758;28;20641;-77
2022/10/24 12:55:47;;;;;;;5.85;1.27;;;19.30;73.90;;;;;;4981809;28;20109;-79
2022/10/24 12:58:41;;;;;;;8.88;1.83;;;19.30;74.70;;;;;;4984115;28;20030;-78
2022/10/24 13:01:26;;;;;;;4.88;1.50;;;19.20;75.20;;;;;;4986414;28;20043;-78
2022/10/24 13:04:09;;;;;;;8.88;1.48;;;19.20;77.50;;;;;;4983363;28;20023;-78
2022/10/24 13:06:44;;;;;;;6.03;1.00;;;19.00;76.40;;;;;;4983895;28;20041;-80
2022/10/24 13:09:31;;;;;;;6.80;1.63;;;19.00;76.20;;;;;;4988368;28;20492;-78